Latest Weather Observations for Pirlangimpi

IDD60801

Issued at 7:35 pm CST Saturday 22 November 2014 (issued every 30 minutes, with the page automatically refreshed every 10 minutes)

About weather observations | Map of weather stations | Latest weather observations for NT | Other Formats
Station Details ID: 014142 Name: PIRLANGIMPI AIRPORT Lat: -11.40 Lon: 130.42 Height: 18.3 m
Data from the previous 72 hours. | See also: Recent months at Pirlangimpi
Date/Time
CST
Temp
°C
App
Temp
°C
Dew
Point
Rel
Hum
%
Delta-T
°C
Wind Press
QNH
hPa
Press
MSL
hPa
Rain
since 9 am
mm
Dir
 
Spd
km/h
Gust
km/h
Spd
kts
Gust
kts
22/07:30pm 27.4 33.0 24.3 83 2.1 N 2 4 1 2 1009.8 1009.7 10.6
22/07:00pm 28.2 33.9 24.4 80 2.6 N 2 4 1 2 1009.6 1009.5 10.6
22/06:30pm 29.4 35.8 24.9 77 3.2 CALM 0 0 0 0 1009.2 1009.1 10.6
22/06:00pm 30.1 35.9 24.5 72 3.9 NNE 2 4 1 2 1008.8 1008.7 10.6
22/05:30pm 30.3 35.9 25.4 75 3.5 NNW 6 9 3 5 1008.5 1008.4 10.6
22/05:00pm 28.5 34.8 26.5 89 1.4 N 6 11 3 6 1008.2 1008.1 10.6
22/04:30pm 27.7 29.1 21.0 67 4.4 E 15 41 8 22 1008.6 1008.5 5.2
22/04:28pm 28.5 28.5 20.2 60 5.5 E 20 41 11 22 1008.8 1008.7 3.0
22/04:00pm 34.5 39.2 25.0 57 6.7 WNW 9 17 5 9 1008.0 1007.9 0.0
22/03:30pm 34.1 38.2 23.2 53 7.6 WNW 7 15 4 8 1008.3 1008.2 0.0
22/03:00pm 33.4 37.6 22.5 52 7.5 WNW 4 9 2 5 1008.8 1008.7 0.0
22/02:30pm 33.7 37.5 23.4 55 7.2 NW 9 15 5 8 1009.3 1009.2 0.0
22/02:00pm 31.6 35.5 22.6 59 6.2 WNW 6 11 3 6 1009.7 1009.6 0.0
22/01:30pm 33.2 36.9 22.3 52 7.5 NNW 6 11 3 6 1009.9 1009.8 0.0
22/01:00pm 32.8 36.2 22.0 53 7.4 SW 7 11 4 6 1010.2 1010.1 0.0
22/12:30pm 32.7 35.8 21.5 51 7.6 SW 7 13 4 7 1010.7 1010.6 0.0
22/12:00pm 32.7 36.5 22.8 56 6.8 SSW 7 9 4 5 1011.2 1011.1 0.0
22/11:30am 31.6 34.6 22.6 59 6.2 SSW 11 17 6 9 1011.7 1011.6 0.0
22/11:00am 31.6 34.1 23.2 61 5.8 SSW 15 20 8 11 1012.1 1012.0 0.0
22/10:30am 32.5 35.6 22.9 57 6.6 S 11 17 6 9 1012.1 1012.0 0.0
22/10:00am 32.1 36.4 23.3 59 6.1 SSE 6 11 3 6 1012.1 1012.0 0.0
22/09:30am 31.1 35.5 23.5 64 5.3 SE 6 11 3 6 1012.1 1012.0 0.0
22/09:00am 30.8 34.8 23.7 66 4.9 SE 9 13 5 7 1012.1 1012.0 0.0
22/08:30am 30.7 35.0 23.6 66 4.9 E 7 11 4 6 1011.9 1011.8 0.0
22/08:00am 29.7 35.0 24.3 73 3.8 E 4 4 2 2 1011.7 1011.6 0.0
22/07:30am 27.7 33.2 24.7 84 2.1 E 4 6 2 3 1011.1 1011.0 0.0
22/07:00am 24.9 30.6 23.7 93 0.8 CALM 0 0 0 0 1010.6 1010.5 0.0
22/06:30am 24.2 29.1 23.0 93 0.8 ENE 2 2 1 1 1010.1 1010.0 0.0
22/06:00am 24.2 29.4 22.8 92 0.9 CALM 0 0 0 0 1009.7 1009.6 0.0
22/05:30am 24.3 29.1 22.9 92 0.9 ENE 2 2 1 1 1009.7 1009.6 0.0
22/05:00am 24.3 29.6 23.1 93 0.8 CALM 0 4 0 2 1009.5 1009.4 0.0
22/04:30am 24.3 29.4 22.7 91 1.1 CALM 0 0 0 0 1008.8 1008.7 0.0
22/04:00am 24.6 29.6 23.2 92 0.9 NE 2 6 1 3 1008.7 1008.6 0.0
22/03:30am 24.4 28.9 23.0 92 0.9 NE 4 6 2 3 1008.5 1008.4 0.0
22/03:00am 24.5 29.7 22.9 91 1.1 CALM 0 0 0 0 1008.6 1008.5 0.0
22/02:30am 24.7 30.0 23.1 91 1.1 CALM 0 0 0 0 1008.9 1008.8 0.0
22/02:00am 24.7 30.0 23.1 91 1.1 CALM 0 0 0 0 1009.3 1009.2 0.0
22/01:30am 24.9 30.2 23.1 90 1.2 CALM 0 0 0 0 1009.8 1009.7 0.0
22/01:00am 25.1 30.4 23.0 88 1.4 CALM 0 2 0 1 1010.3 1010.2 0.0
22/12:30am 25.5 30.6 23.4 88 1.4 NNE 2 6 1 3 1010.5 1010.4 0.0
22/12:00am 25.8 30.6 23.5 87 1.6 NNE 4 6 2 3 1010.6 1010.5 0.0
 
Date/Time
CST
Temp
°C
App
Temp
°C
Dew
Point
Rel
Hum
%
Delta-T
°C
Wind Press
QNH
hPa
Press
MSL
hPa
Rain
since 9 am
mm
Dir
 
Spd
km/h
Gust
km/h
Spd
kts
Gust
kts
21/11:30pm 25.8 30.5 23.3 86 1.7 N 4 6 2 3 1010.6 1010.5 0.0
21/11:00pm 26.1 31.6 23.4 85 1.8 CALM 0 0 0 0 1010.5 1010.4 0.0
21/10:30pm 26.1 30.7 23.2 84 2.0 N 4 7 2 4 1010.3 1010.2 0.0
21/10:00pm 26.4 31.5 23.3 83 2.1 N 2 6 1 3 1010.2 1010.1 0.0
21/09:30pm 26.9 31.6 23.4 81 2.4 N 4 7 2 4 1009.9 1009.8 0.0
21/09:00pm 26.6 31.3 23.3 82 2.3 N 4 9 2 5 1009.6 1009.5 0.0
21/08:30pm 26.5 31.3 22.8 80 2.5 N 2 6 1 3 1009.6 1009.5 0.0
21/08:00pm 26.9 31.9 22.5 77 3.0 CALM 0 0 0 0 1009.3 1009.2 0.0
21/07:30pm 27.7 32.8 22.6 74 3.5 CALM 0 0 0 0 1009.3 1009.2 0.0
21/07:00pm 28.7 33.4 22.7 70 4.1 SE 2 4 1 2 1009.1 1009.0 0.0
21/06:30pm 29.1 33.8 22.6 68 4.4 SSE 2 4 1 2 1009.0 1008.9 0.0
21/06:00pm 29.0 33.7 22.7 69 4.3 SE 2 4 1 2 1008.7 1008.6 0.0
21/05:30pm 28.3 32.9 22.5 71 3.9 SSE 2 6 1 3 1008.6 1008.5 0.0
21/05:00pm 28.2 32.9 22.0 69 4.2 CALM 0 4 0 2 1008.6 1008.5 0.0
21/04:30pm 28.2 32.2 22.0 69 4.2 SW 4 7 2 4 1008.7 1008.6 0.0
21/04:00pm 28.4 31.7 22.6 71 3.9 SSW 9 13 5 7 1008.9 1008.8 0.0
21/03:30pm 29.8 32.6 22.3 64 5.1 SW 11 15 6 8 1009.2 1009.1 0.0
21/03:27pm 29.9 30.6 21.6 61 5.6 S 20 26 11 14 1009.2 1009.1 0.0
21/03:00pm 34.9 37.9 21.9 46 8.9 NNE 9 17 5 9 1008.5 1008.4 0.0
21/02:30pm 35.5 39.7 24.8 54 7.6 NW 11 19 6 10 1008.2 1008.1 0.0
21/02:00pm 35.5 40.3 24.4 52 7.8 NW 7 17 4 9 1008.9 1008.8 0.0
21/01:30pm 34.1 37.2 23.5 54 7.4 NW 13 20 7 11 1009.4 1009.3 0.0
21/01:00pm 33.9 37.6 23.9 56 7.0 NW 11 22 6 12 1009.7 1009.6 0.0
21/12:30pm 35.3 39.8 24.6 54 7.6 NW 9 15 5 8 1010.0 1009.9 0.0
21/12:00pm 33.7 38.3 24.8 59 6.3 NW 9 17 5 9 1010.5 1010.4 0.0
21/11:30am 33.2 38.3 24.7 61 6.0 NW 6 9 3 5 1010.9 1010.8 0.0
21/11:00am 33.5 38.6 24.1 58 6.6 N 4 11 2 6 1011.4 1011.3 0.0
21/10:30am 32.2 36.7 23.7 61 5.9 W 6 9 3 5 1011.8 1011.7 0.0
21/10:00am 30.5 35.0 23.7 67 4.7 SW 6 11 3 6 1012.2 1012.1 0.0
21/09:30am 30.9 36.3 23.8 66 4.9 NE 2 4 1 2 1012.2 1012.1 0.0
21/09:00am 30.9 35.8 24.3 68 4.6 SSE 6 9 3 5 1012.2 1012.1 0.0
21/08:30am 30.2 35.1 23.6 67 4.6 SE 4 7 2 4 1012.0 1011.9 0.0
21/08:00am 29.1 34.1 23.8 73 3.7 SE 4 4 2 2 1011.7 1011.6 0.0
21/07:30am 28.1 33.4 24.3 80 2.6 SE 4 6 2 3 1011.3 1011.2 0.0
21/07:00am 26.4 31.7 24.4 89 1.4 SE 4 4 2 2 1011.1 1011.0 0.0
21/06:30am 25.3 30.1 23.5 90 1.2 SE 4 6 2 3 1010.8 1010.7 0.0
21/06:00am 25.1 30.3 23.5 91 1.1 ESE 2 4 1 2 1010.5 1010.4 0.0
21/05:30am 24.7 30.0 23.1 91 1.1 CALM 0 0 0 0 1010.1 1010.0 0.0
21/05:00am 24.9 30.2 23.1 90 1.2 CALM 0 0 0 0 1009.8 1009.7 0.0
21/04:30am 24.9 30.2 23.1 90 1.2 CALM 0 0 0 0 1009.6 1009.5 0.0
21/04:00am 25.1 30.5 23.2 89 1.3 CALM 0 0 0 0 1009.4 1009.3 0.0
21/03:30am 25.0 30.4 23.2 90 1.2 CALM 0 0 0 0 1009.1 1009.0 0.0
21/03:00am 25.1 29.7 23.2 89 1.3 NE 4 6 2 3 1009.1 1009.0 0.0
21/02:30am 25.2 30.1 23.1 88 1.4 N 2 4 1 2 1009.0 1008.9 0.0
21/02:00am 25.5 30.1 23.2 87 1.6 N 4 6 2 3 1009.3 1009.2 0.0
21/01:30am 25.7 30.4 23.4 87 1.6 N 4 7 2 4 1009.5 1009.4 0.0
21/01:00am 25.8 30.5 23.3 86 1.7 N 4 6 2 3 1009.8 1009.7 0.0
21/12:30am 25.6 30.1 22.9 85 1.8 N 4 7 2 4 1009.9 1009.8 0.0
21/12:00am 25.8 30.6 22.9 84 2.0 N 2 4 1 2 1010.3 1010.2 0.0
 
Date/Time
CST
Temp
°C
App
Temp
°C
Dew
Point
Rel
Hum
%
Delta-T
°C
Wind Press
QNH
hPa
Press
MSL
hPa
Rain
since 9 am
mm
Dir
 
Spd
km/h
Gust
km/h
Spd
kts
Gust
kts
20/11:30pm 26.0 30.9 23.1 84 2.0 N 2 4 1 2 1010.3 1010.2 0.0
20/11:00pm 26.2 31.0 22.9 82 2.2 NE 2 4 1 2 1010.6 1010.5 0.0
20/10:30pm 26.5 31.3 22.8 80 2.5 NE 2 4 1 2 1010.5 1010.4 0.0
20/10:00pm 26.6 31.1 22.9 80 2.5 NNE 4 6 2 3 1010.5 1010.4 0.0
20/09:30pm 26.8 31.2 22.8 79 2.7 NNE 4 6 2 3 1010.3 1010.2 0.0
20/09:00pm 26.9 31.4 22.9 79 2.7 NNE 4 4 2 2 1010.0 1009.9 0.0
20/08:30pm 27.3 32.0 22.7 76 3.1 N 2 6 1 3 1009.8 1009.7 0.0
20/08:00pm 27.4 32.1 22.6 75 3.3 N 2 4 1 2 1009.5 1009.4 0.0
20/07:30pm 28.1 32.8 22.6 72 3.7 N 2 4 1 2 1009.1 1009.0 0.0
20/07:00pm 28.9 33.4 22.9 70 4.1 N 4 6 2 3 1008.9 1008.8 0.0
20/06:30pm 29.7 33.8 22.9 67 4.7 N 6 11 3 6 1008.8 1008.7 0.0
20/06:00pm 30.2 33.8 23.1 65 4.9 NW 9 17 5 9 1008.4 1008.3 0.0
20/05:30pm 30.9 34.6 23.3 64 5.2 NW 9 15 5 8 1008.4 1008.3 0.0
20/05:00pm 30.5 33.9 23.4 66 4.9 NNW 11 19 6 10 1008.2 1008.1 0.0
20/04:30pm 30.2 34.4 23.4 67 4.7 NW 7 13 4 7 1008.3 1008.2 0.0
20/04:00pm 30.9 34.9 23.8 66 4.9 NNW 9 19 5 10 1008.3 1008.2 0.0
20/03:30pm 31.8 34.7 23.1 60 6.0 WNW 13 20 7 11 1008.0 1007.9 0.0
20/03:00pm 32.3 35.3 22.7 57 6.6 WNW 11 19 6 10 1008.3 1008.2 0.0
20/02:30pm 35.0 39.5 24.0 53 7.7 NW 7 15 4 8 1008.5 1008.4 0.0
20/02:00pm 33.4 36.8 23.4 55 6.9 NW 11 17 6 9 1009.0 1008.9 0.0
20/01:30pm 34.2 37.4 21.3 47 8.7 NNW 6 15 3 8 1009.5 1009.4 0.0
20/01:00pm 35.2 38.7 22.2 47 8.9 N 7 13 4 7 1010.1 1010.0 0.0
20/12:30pm 34.3 37.7 22.7 50 8.0 N 9 17 5 9 1010.7 1010.6 0.0
20/12:00pm 32.9 36.5 23.0 56 6.8 NNE 9 20 5 11 1011.4 1011.3 0.0
20/11:30am 33.2 36.9 22.3 52 7.5 NNE 6 11 3 6 1011.8 1011.7 0.0
20/11:00am 32.5 36.2 22.6 56 6.8 NNE 7 17 4 9 1011.9 1011.8 0.0
20/10:30am 32.8 36.4 22.0 53 7.4 NE 6 13 3 7 1012.3 1012.2 0.0
20/10:00am 32.6 37.1 23.0 57 6.6 NNE 4 7 2 4 1012.5 1012.4 0.0
20/09:30am 32.6 36.9 23.3 58 6.4 ENE 6 13 3 7 1012.6 1012.5 0.0
20/09:00am 31.1 35.4 22.7 61 5.7 E 4 9 2 5 1012.6 1012.5 0.0
20/08:30am 30.1 34.3 23.5 67 4.6 ENE 7 11 4 6 1012.3 1012.2 0.0
20/08:00am 29.0 33.6 24.1 75 3.4 ENE 7 11 4 6 1012.0 1011.9 0.0
20/07:30am 26.6 31.5 23.7 84 2.0 ENE 4 7 2 4 1011.4 1011.3 0.0
20/07:00am 24.7 29.9 23.5 93 0.8 ENE 2 4 1 2 1011.1 1011.0 0.0
20/06:30am 23.9 28.6 22.7 93 0.8 ENE 2 4 1 2 1010.6 1010.5 0.0
20/06:00am 23.9 28.1 22.5 92 0.9 ENE 4 6 2 3 1010.5 1010.4 0.0
20/05:30am 24.0 28.7 22.6 92 0.9 ENE 2 4 1 2 1010.1 1010.0 0.0
20/05:00am 23.9 28.4 22.3 91 1.1 ENE 2 4 1 2 1009.8 1009.7 0.0
20/04:30am 23.9 28.1 22.5 92 0.9 NE 4 6 2 3 1009.6 1009.5 0.0
20/04:00am 24.1 28.3 22.5 91 1.1 NE 4 6 2 3 1009.4 1009.3 0.0
20/03:30am 24.2 29.3 22.6 91 1.1 CALM 0 0 0 0 1009.3 1009.2 0.0
20/03:00am 24.4 29.5 22.7 90 1.1 CALM 0 0 0 0 1009.5 1009.4 0.0
20/02:30am 24.3 29.2 22.4 89 1.3 CALM 0 0 0 0 1009.5 1009.4 0.0
20/02:00am 24.6 29.7 22.7 89 1.3 CALM 0 0 0 0 1010.0 1009.9 0.0
20/01:30am 24.7 29.8 22.6 88 1.4 CALM 0 0 0 0 1010.3 1010.2 0.0
20/01:00am 24.8 29.7 22.3 86 1.7 CALM 0 0 0 0 1010.7 1010.6 0.0
20/12:30am 25.1 30.0 22.4 85 1.8 CALM 0 0 0 0 1010.7 1010.6 0.0
20/12:00am 25.3 30.2 22.4 84 1.9 CALM 0 0 0 0 1010.8 1010.7 0.0
 
Date/Time
CST
Temp
°C
App
Temp
°C
Dew
Point
Rel
Hum
%
Delta-T
°C
Wind Press
QNH
hPa
Press
MSL
hPa
Rain
since 9 am
mm
Dir
 
Spd
km/h
Gust
km/h
Spd
kts
Gust
kts
19/11:30pm 25.3 30.2 22.4 84 1.9 CALM 0 0 0 0 1010.9 1010.8 0.0
19/11:00pm 25.8 30.7 22.3 81 2.4 CALM 0 0 0 0 1010.9 1010.8 0.0
19/10:30pm 26.1 30.9 22.2 79 2.6 CALM 0 0 0 0 1011.1 1011.0 0.0
19/10:00pm 26.4 31.1 22.0 77 2.9 CALM 0 0 0 0 1010.9 1010.8 0.0
19/09:30pm 26.8 31.5 22.0 75 3.2 CALM 0 0 0 0 1010.8 1010.7 0.0
19/09:00pm 27.4 32.1 21.9 72 3.7 CALM 0 0 0 0 1010.7 1010.6 0.0
19/08:30pm 28.0 32.2 21.8 69 4.2 N 2 4 1 2 1010.3 1010.2 0.0
19/08:00pm 28.5 32.6 21.5 66 4.7 N 2 6 1 3 1010.1 1010.0 0.0

Other Formats:

Comma delimited format used in spreadsheet applications
http://www.bom.gov.au/fwo/IDD60801/IDD60801.94119.axf

JavaScript Object Notation format (JSON) in row-major order
http://www.bom.gov.au/fwo/IDD60801/IDD60801.94119.json